sensor_id;sensor_type;location;lat;lon;timestamp;temperature;humidity
22635;DHT22;11484;50.858;4.384;2022-12-29T00:00:26;12.10;99.90
22635;DHT22;11484;50.858;4.384;2022-12-29T00:02:52;12.10;99.90
22635;DHT22;11484;50.858;4.384;2022-12-29T00:05:18;12.00;99.90
22635;DHT22;11484;50.858;4.384;2022-12-29T00:07:44;12.00;99.90
22635;DHT22;11484;50.858;4.384;2022-12-29T00:10:10;12.10;99.90
22635;DHT22;11484;50.858;4.384;2022-12-29T00:12:35;12.10;99.90
22635;DHT22;11484;50.858;4.384;2022-12-29T00:15:20;12.10;99.90
22635;DHT22;11484;50.858;4.384;2022-12-29T00:18:04;12.20;99.90
22635;DHT22;11484;50.858;4.384;2022-12-29T00:20:33;12.20;99.90
22635;DHT22;11484;50.858;4.384;2022-12-29T00:23:17;12.20;99.90
22635;DHT22;11484;50.858;4.384;2022-12-29T00:26:03;12.20;99.90
22635;DHT22;11484;50.858;4.384;2022-12-29T00:28:47;12.20;99.90
22635;DHT22;11484;50.858;4.384;2022-12-29T00:31:32;12.20;99.90
22635;DHT22;11484;50.858;4.384;2022-12-29T00:34:16;12.20;99.90
22635;DHT22;11484;50.858;4.384;2022-12-29T00:37:01;12.20;99.90
22635;DHT22;11484;50.858;4.384;2022-12-29T00:39:27;12.20;99.90
22635;DHT22;11484;50.858;4.384;2022-12-29T00:42:11;12.30;99.90
22635;DHT22;11484;50.858;4.384;2022-12-29T00:44:55;12.30;99.90
22635;DHT22;11484;50.858;4.384;2022-12-29T00:47:21;12.30;99.90
22635;DHT22;11484;50.858;4.384;2022-12-29T00:49:47;12.40;99.90
22635;DHT22;11484;50.858;4.384;2022-12-29T00:52:13;12.40;99.90
22635;DHT22;11484;50.858;4.384;2022-12-29T00:54:40;12.50;99.90
22635;DHT22;11484;50.858;4.384;2022-12-29T00:57:10;12.40;99.90
22635;DHT22;11484;50.858;4.384;2022-12-29T00:59:37;12.40;99.90
22635;DHT22;11484;50.858;4.384;2022-12-29T01:02:03;12.40;99.90
22635;DHT22;11484;50.858;4.384;2022-12-29T01:04:29;12.40;99.90
22635;DHT22;11484;50.858;4.384;2022-12-29T01:06:55;12.40;99.90
22635;DHT22;11484;50.858;4.384;2022-12-29T01:09:21;12.40;99.90
22635;DHT22;11484;50.858;4.384;2022-12-29T01:12:06;12.50;99.90
22635;DHT22;11484;50.858;4.384;2022-12-29T01:14:33;12.40;99.90
22635;DHT22;11484;50.858;4.384;2022-12-29T01:16:59;12.40;99.90
22635;DHT22;11484;50.858;4.384;2022-12-29T01:19:25;12.40;99.90
22635;DHT22;11484;50.858;4.384;2022-12-29T01:21:52;12.30;99.90
22635;DHT22;11484;50.858;4.384;2022-12-29T01:24:19;12.30;99.90
22635;DHT22;11484;50.858;4.384;2022-12-29T01:26:46;12.10;99.90
22635;DHT22;11484;50.858;4.384;2022-12-29T01:29:12;12.00;99.90
22635;DHT22;11484;50.858;4.384;2022-12-29T01:31:39;11.90;99.90
22635;DHT22;11484;50.858;4.384;2022-12-29T01:34:06;11.80;99.90
22635;DHT22;11484;50.858;4.384;2022-12-29T01:36:32;11.70;99.90
22635;DHT22;11484;50.858;4.384;2022-12-29T01:39:00;11.60;99.90
22635;DHT22;11484;50.858;4.384;2022-12-29T01:41:26;11.60;99.90
22635;DHT22;11484;50.858;4.384;2022-12-29T01:43:54;11.60;99.90
22635;DHT22;11484;50.858;4.384;2022-12-29T01:46:40;11.50;99.90
22635;DHT22;11484;50.858;4.384;2022-12-29T01:49:19;11.60;99.90
22635;DHT22;11484;50.858;4.384;2022-12-29T01:52:07;11.60;99.90
22635;DHT22;11484;50.858;4.384;2022-12-29T01:54:49;11.70;99.90
22635;DHT22;11484;50.858;4.384;2022-12-29T01:57:20;11.70;99.90
22635;DHT22;11484;50.858;4.384;2022-12-29T01:59:53;11.70;99.90
22635;DHT22;11484;50.858;4.384;2022-12-29T02:02:21;11.70;99.90
22635;DHT22;11484;50.858;4.384;2022-12-29T02:04:47;11.70;99.90
22635;DHT22;11484;50.858;4.384;2022-12-29T02:07:21;11.60;99.90
22635;DHT22;11484;50.858;4.384;2022-12-29T02:09:49;11.60;99.90
22635;DHT22;11484;50.858;4.384;2022-12-29T02:12:17;11.70;99.90
22635;DHT22;11484;50.858;4.384;2022-12-29T02:14:44;11.60;99.90
22635;DHT22;11484;50.858;4.384;2022-12-29T02:22:49;11.50;99.90
22635;DHT22;11484;50.858;4.384;2022-12-29T02:25:26;11.40;99.90
22635;DHT22;11484;50.858;4.384;2022-12-29T02:39:12;11.10;99.90
22635;DHT22;11484;50.858;4.384;2022-12-29T02:50:08;10.90;99.90
22635;DHT22;11484;50.858;4.384;2022-12-29T02:52:38;10.90;99.90
22635;DHT22;11484;50.858;4.384;2022-12-29T02:55:05;10.80;99.90
22635;DHT22;11484;50.858;4.384;2022-12-29T02:57:34;10.80;99.90
22635;DHT22;11484;50.858;4.384;2022-12-29T03:00:15;10.80;99.90
22635;DHT22;11484;50.858;4.384;2022-12-29T03:08:48;10.80;99.90
22635;DHT22;11484;50.858;4.384;2022-12-29T03:11:13;10.80;99.90
22635;DHT22;11484;50.858;4.384;2022-12-29T03:16:52;10.60;99.90
22635;DHT22;11484;50.858;4.384;2022-12-29T03:19:20;10.60;99.90
22635;DHT22;11484;50.858;4.384;2022-12-29T03:22:01;10.60;99.90
22635;DHT22;11484;50.858;4.384;2022-12-29T03:24:52;10.50;99.90
22635;DHT22;11484;50.858;4.384;2022-12-29T03:27:27;10.50;99.90
22635;DHT22;11484;50.858;4.384;2022-12-29T03:29:58;10.50;99.90
22635;DHT22;11484;50.858;4.384;2022-12-29T03:32:32;10.50;99.90
22635;DHT22;11484;50.858;4.384;2022-12-29T03:35:00;10.60;99.90
22635;DHT22;11484;50.858;4.384;2022-12-29T03:37:31;10.60;99.90
22635;DHT22;11484;50.858;4.384;2022-12-29T03:40:00;10.60;99.90
22635;DHT22;11484;50.858;4.384;2022-12-29T03:42:28;10.60;99.90
22635;DHT22;11484;50.858;4.384;2022-12-29T03:44:56;10.60;99.90
22635;DHT22;11484;50.858;4.384;2022-12-29T03:47:23;10.60;99.90
22635;DHT22;11484;50.858;4.384;2022-12-29T03:49:50;10.60;99.90
22635;DHT22;11484;50.858;4.384;2022-12-29T03:52:16;10.70;99.90
22635;DHT22;11484;50.858;4.384;2022-12-29T03:54:42;10.70;99.90
22635;DHT22;11484;50.858;4.384;2022-12-29T03:57:08;10.70;99.90
22635;DHT22;11484;50.858;4.384;2022-12-29T03:59:34;10.80;99.90
22635;DHT22;11484;50.858;4.384;2022-12-29T04:02:00;10.80;99.90
22635;DHT22;11484;50.858;4.384;2022-12-29T04:04:26;10.80;99.90
22635;DHT22;11484;50.858;4.384;2022-12-29T04:06:52;10.80;99.90
22635;DHT22;11484;50.858;4.384;2022-12-29T04:09:17;10.70;99.90
22635;DHT22;11484;50.858;4.384;2022-12-29T04:11:43;10.70;99.90
22635;DHT22;11484;50.858;4.384;2022-12-29T04:14:09;10.70;99.90
22635;DHT22;11484;50.858;4.384;2022-12-29T04:16:35;10.80;99.90
22635;DHT22;11484;50.858;4.384;2022-12-29T04:19:02;10.70;99.90
22635;DHT22;11484;50.858;4.384;2022-12-29T04:21:28;10.70;99.90
22635;DHT22;11484;50.858;4.384;2022-12-29T04:23:53;10.70;99.90
22635;DHT22;11484;50.858;4.384;2022-12-29T04:26:19;10.80;99.90
22635;DHT22;11484;50.858;4.384;2022-12-29T04:28:45;10.70;99.90
22635;DHT22;11484;50.858;4.384;2022-12-29T04:31:10;10.60;99.90
22635;DHT22;11484;50.858;4.384;2022-12-29T04:33:36;10.60;99.90
22635;DHT22;11484;50.858;4.384;2022-12-29T04:36:02;10.60;99.90
22635;DHT22;11484;50.858;4.384;2022-12-29T04:38:28;10.60;99.90
22635;DHT22;11484;50.858;4.384;2022-12-29T04:40:54;10.70;99.90
22635;DHT22;11484;50.858;4.384;2022-12-29T04:43:20;10.70;99.90
22635;DHT22;11484;50.858;4.384;2022-12-29T04:45:47;10.80;99.90
22635;DHT22;11484;50.858;4.384;2022-12-29T04:48:14;10.70;99.90
22635;DHT22;11484;50.858;4.384;2022-12-29T04:50:40;10.70;99.90
22635;DHT22;11484;50.858;4.384;2022-12-29T04:53:06;10.70;99.90
22635;DHT22;11484;50.858;4.384;2022-12-29T04:55:32;10.70;99.90
22635;DHT22;11484;50.858;4.384;2022-12-29T04:57:58;10.80;99.90
22635;DHT22;11484;50.858;4.384;2022-12-29T05:00:24;10.90;99.90
22635;DHT22;11484;50.858;4.384;2022-12-29T05:02:50;11.00;99.90
22635;DHT22;11484;50.858;4.384;2022-12-29T05:05:16;11.00;99.90
22635;DHT22;11484;50.858;4.384;2022-12-29T05:07:41;11.00;99.90
22635;DHT22;11484;50.858;4.384;2022-12-29T05:10:08;11.10;99.90
22635;DHT22;11484;50.858;4.384;2022-12-29T05:12:35;11.10;99.90
22635;DHT22;11484;50.858;4.384;2022-12-29T05:15:01;11.10;99.90
22635;DHT22;11484;50.858;4.384;2022-12-29T05:17:29;11.10;99.90
22635;DHT22;11484;50.858;4.384;2022-12-29T05:19:55;11.00;99.90
22635;DHT22;11484;50.858;4.384;2022-12-29T05:22:21;11.10;99.90
22635;DHT22;11484;50.858;4.384;2022-12-29T05:24:47;11.10;99.90
22635;DHT22;11484;50.858;4.384;2022-12-29T05:27:13;11.10;99.90
22635;DHT22;11484;50.858;4.384;2022-12-29T05:29:39;11.10;99.90
22635;DHT22;11484;50.858;4.384;2022-12-29T05:32:04;11.10;99.90
22635;DHT22;11484;50.858;4.384;2022-12-29T05:34:30;11.10;99.90
22635;DHT22;11484;50.858;4.384;2022-12-29T05:36:56;11.10;99.90
22635;DHT22;11484;50.858;4.384;2022-12-29T05:39:22;11.20;99.90
22635;DHT22;11484;50.858;4.384;2022-12-29T05:41:48;11.20;99.90
22635;DHT22;11484;50.858;4.384;2022-12-29T05:44:14;11.20;99.90
22635;DHT22;11484;50.858;4.384;2022-12-29T05:46:40;11.20;99.90
22635;DHT22;11484;50.858;4.384;2022-12-29T05:49:06;11.20;99.90
22635;DHT22;11484;50.858;4.384;2022-12-29T05:51:32;11.20;99.90
22635;DHT22;11484;50.858;4.384;2022-12-29T05:53:58;11.20;99.90
22635;DHT22;11484;50.858;4.384;2022-12-29T05:56:23;11.20;99.90
22635;DHT22;11484;50.858;4.384;2022-12-29T05:58:49;11.20;99.90
22635;DHT22;11484;50.858;4.384;2022-12-29T06:01:15;11.20;99.90
22635;DHT22;11484;50.858;4.384;2022-12-29T06:03:41;11.10;99.90
22635;DHT22;11484;50.858;4.384;2022-12-29T06:06:06;11.10;99.90
22635;DHT22;11484;50.858;4.384;2022-12-29T06:08:32;11.10;99.90
22635;DHT22;11484;50.858;4.384;2022-12-29T06:10:58;11.10;99.90
22635;DHT22;11484;50.858;4.384;2022-12-29T06:13:24;11.10;99.90
22635;DHT22;11484;50.858;4.384;2022-12-29T06:15:50;11.10;99.90
22635;DHT22;11484;50.858;4.384;2022-12-29T06:18:16;11.10;99.90
22635;DHT22;11484;50.858;4.384;2022-12-29T06:20:42;11.10;99.90
22635;DHT22;11484;50.858;4.384;2022-12-29T06:23:08;11.00;99.90
22635;DHT22;11484;50.858;4.384;2022-12-29T06:25:34;11.00;99.90
22635;DHT22;11484;50.858;4.384;2022-12-29T06:28:01;11.00;99.90
22635;DHT22;11484;50.858;4.384;2022-12-29T06:30:27;10.90;99.90
22635;DHT22;11484;50.858;4.384;2022-12-29T06:32:53;10.90;99.90
22635;DHT22;11484;50.858;4.384;2022-12-29T06:35:20;10.90;99.90
22635;DHT22;11484;50.858;4.384;2022-12-29T06:37:48;10.90;99.90
22635;DHT22;11484;50.858;4.384;2022-12-29T06:40:14;11.00;99.90
22635;DHT22;11484;50.858;4.384;2022-12-29T06:42:39;11.00;99.90
22635;DHT22;11484;50.858;4.384;2022-12-29T06:45:06;11.00;99.90
22635;DHT22;11484;50.858;4.384;2022-12-29T06:47:33;11.10;99.90
22635;DHT22;11484;50.858;4.384;2022-12-29T06:49:59;11.20;99.90
22635;DHT22;11484;50.858;4.384;2022-12-29T06:52:25;11.20;99.90
22635;DHT22;11484;50.858;4.384;2022-12-29T06:54:51;11.20;99.90
22635;DHT22;11484;50.858;4.384;2022-12-29T06:57:17;11.30;99.90
22635;DHT22;11484;50.858;4.384;2022-12-29T06:59:43;11.20;99.90
22635;DHT22;11484;50.858;4.384;2022-12-29T07:02:10;11.20;99.90
22635;DHT22;11484;50.858;4.384;2022-12-29T07:04:36;11.20;99.90
22635;DHT22;11484;50.858;4.384;2022-12-29T07:07:02;11.20;99.90
22635;DHT22;11484;50.858;4.384;2022-12-29T07:09:28;11.20;99.90
22635;DHT22;11484;50.858;4.384;2022-12-29T07:11:54;11.20;99.90
22635;DHT22;11484;50.858;4.384;2022-12-29T07:14:19;11.30;99.90
22635;DHT22;11484;50.858;4.384;2022-12-29T07:16:45;11.20;99.90
22635;DHT22;11484;50.858;4.384;2022-12-29T07:19:11;11.20;99.90
22635;DHT22;11484;50.858;4.384;2022-12-29T07:21:36;11.10;99.90
22635;DHT22;11484;50.858;4.384;2022-12-29T07:24:02;11.10;99.90
22635;DHT22;11484;50.858;4.384;2022-12-29T07:26:28;11.10;99.90
22635;DHT22;11484;50.858;4.384;2022-12-29T07:28:54;11.10;99.90
22635;DHT22;11484;50.858;4.384;2022-12-29T07:31:22;11.10;99.90
22635;DHT22;11484;50.858;4.384;2022-12-29T07:33:49;11.20;99.90
22635;DHT22;11484;50.858;4.384;2022-12-29T07:36:16;11.30;99.90
22635;DHT22;11484;50.858;4.384;2022-12-29T07:38:43;11.30;99.90
22635;DHT22;11484;50.858;4.384;2022-12-29T07:41:09;11.20;99.90
22635;DHT22;11484;50.858;4.384;2022-12-29T07:43:35;11.20;99.90
22635;DHT22;11484;50.858;4.384;2022-12-29T07:46:01;11.20;99.90
22635;DHT22;11484;50.858;4.384;2022-12-29T07:48:27;11.30;99.90
22635;DHT22;11484;50.858;4.384;2022-12-29T07:50:53;11.30;99.90
22635;DHT22;11484;50.858;4.384;2022-12-29T07:53:19;11.20;99.90
22635;DHT22;11484;50.858;4.384;2022-12-29T07:55:45;11.20;99.90
22635;DHT22;11484;50.858;4.384;2022-12-29T07:58:10;11.30;99.90
22635;DHT22;11484;50.858;4.384;2022-12-29T08:00:39;11.30;99.90
22635;DHT22;11484;50.858;4.384;2022-12-29T08:03:06;11.30;99.90
22635;DHT22;11484;50.858;4.384;2022-12-29T08:05:33;11.30;99.90
22635;DHT22;11484;50.858;4.384;2022-12-29T08:07:59;11.30;99.90
22635;DHT22;11484;50.858;4.384;2022-12-29T08:10:25;11.30;99.90
22635;DHT22;11484;50.858;4.384;2022-12-29T08:12:51;11.30;99.90
22635;DHT22;11484;50.858;4.384;2022-12-29T08:15:17;11.20;99.90
22635;DHT22;11484;50.858;4.384;2022-12-29T08:17:43;11.10;99.90
22635;DHT22;11484;50.858;4.384;2022-12-29T08:20:09;11.20;99.90
22635;DHT22;11484;50.858;4.384;2022-12-29T08:22:35;11.30;99.90
22635;DHT22;11484;50.858;4.384;2022-12-29T08:25:02;11.40;99.90
22635;DHT22;11484;50.858;4.384;2022-12-29T08:27:27;11.30;99.90
22635;DHT22;11484;50.858;4.384;2022-12-29T08:29:53;11.40;99.90
22635;DHT22;11484;50.858;4.384;2022-12-29T08:32:19;11.30;99.90
22635;DHT22;11484;50.858;4.384;2022-12-29T08:34:45;11.30;99.90
22635;DHT22;11484;50.858;4.384;2022-12-29T08:37:11;11.20;99.90
22635;DHT22;11484;50.858;4.384;2022-12-29T08:39:37;11.30;99.90
22635;DHT22;11484;50.858;4.384;2022-12-29T08:42:02;11.20;99.90
22635;DHT22;11484;50.858;4.384;2022-12-29T08:44:28;11.30;99.90
22635;DHT22;11484;50.858;4.384;2022-12-29T08:46:54;11.30;99.90
22635;DHT22;11484;50.858;4.384;2022-12-29T08:49:20;11.30;99.90
22635;DHT22;11484;50.858;4.384;2022-12-29T08:51:46;11.30;99.90
22635;DHT22;11484;50.858;4.384;2022-12-29T08:54:11;11.30;99.90
22635;DHT22;11484;50.858;4.384;2022-12-29T08:56:37;11.30;99.90
22635;DHT22;11484;50.858;4.384;2022-12-29T08:59:03;11.40;99.90
22635;DHT22;11484;50.858;4.384;2022-12-29T09:01:29;11.40;99.90
22635;DHT22;11484;50.858;4.384;2022-12-29T09:03:56;11.40;99.90
22635;DHT22;11484;50.858;4.384;2022-12-29T09:06:21;11.40;99.90
22635;DHT22;11484;50.858;4.384;2022-12-29T09:08:47;11.60;99.90
22635;DHT22;11484;50.858;4.384;2022-12-29T09:11:19;11.50;99.90
22635;DHT22;11484;50.858;4.384;2022-12-29T09:13:45;11.40;99.90
22635;DHT22;11484;50.858;4.384;2022-12-29T09:16:11;11.50;99.90
22635;DHT22;11484;50.858;4.384;2022-12-29T09:18:38;11.50;99.90
22635;DHT22;11484;50.858;4.384;2022-12-29T09:21:05;11.50;99.90
22635;DHT22;11484;50.858;4.384;2022-12-29T09:23:32;11.40;99.90
22635;DHT22;11484;50.858;4.384;2022-12-29T09:25:58;11.50;99.90
22635;DHT22;11484;50.858;4.384;2022-12-29T09:28:24;11.40;99.90
22635;DHT22;11484;50.858;4.384;2022-12-29T09:30:50;11.30;99.90
22635;DHT22;11484;50.858;4.384;2022-12-29T09:33:16;11.30;99.90
22635;DHT22;11484;50.858;4.384;2022-12-29T09:35:49;11.30;99.90
22635;DHT22;11484;50.858;4.384;2022-12-29T09:38:16;11.20;99.90
22635;DHT22;11484;50.858;4.384;2022-12-29T09:40:45;11.30;99.90
22635;DHT22;11484;50.858;4.384;2022-12-29T09:46:01;11.30;99.90
22635;DHT22;11484;50.858;4.384;2022-12-29T09:48:41;11.40;99.90
22635;DHT22;11484;50.858;4.384;2022-12-29T09:51:11;11.40;99.90
22635;DHT22;11484;50.858;4.384;2022-12-29T09:53:42;11.40;99.90
22635;DHT22;11484;50.858;4.384;2022-12-29T09:56:16;11.50;99.90
22635;DHT22;11484;50.858;4.384;2022-12-29T09:59:17;11.60;99.90
22635;DHT22;11484;50.858;4.384;2022-12-29T10:01:52;11.60;99.90
22635;DHT22;11484;50.858;4.384;2022-12-29T10:04:19;11.70;99.90
22635;DHT22;11484;50.858;4.384;2022-12-29T10:12:32;11.80;99.90
22635;DHT22;11484;50.858;4.384;2022-12-29T10:17:44;11.90;99.90
22635;DHT22;11484;50.858;4.384;2022-12-29T10:25:25;11.60;99.90
22635;DHT22;11484;50.858;4.384;2022-12-29T10:27:56;11.50;99.90
22635;DHT22;11484;50.858;4.384;2022-12-29T10:30:22;11.60;99.90
22635;DHT22;11484;50.858;4.384;2022-12-29T10:32:56;11.70;99.90
22635;DHT22;11484;50.858;4.384;2022-12-29T10:35:26;11.80;99.90
22635;DHT22;11484;50.858;4.384;2022-12-29T10:40:43;12.00;99.90
22635;DHT22;11484;50.858;4.384;2022-12-29T10:45:58;12.10;99.90
22635;DHT22;11484;50.858;4.384;2022-12-29T10:48:32;12.10;99.90
22635;DHT22;11484;50.858;4.384;2022-12-29T10:51:04;12.20;99.90
22635;DHT22;11484;50.858;4.384;2022-12-29T10:56:01;12.20;99.90
22635;DHT22;11484;50.858;4.384;2022-12-29T10:58:29;12.10;99.90
22635;DHT22;11484;50.858;4.384;2022-12-29T11:00:57;12.10;99.90
22635;DHT22;11484;50.858;4.384;2022-12-29T11:06:11;12.20;99.90
22635;DHT22;11484;50.858;4.384;2022-12-29T11:08:43;12.30;99.90
22635;DHT22;11484;50.858;4.384;2022-12-29T11:11:10;12.20;99.90
22635;DHT22;11484;50.858;4.384;2022-12-29T11:13:56;12.30;99.90
22635;DHT22;11484;50.858;4.384;2022-12-29T11:16:33;12.50;99.90
22635;DHT22;11484;50.858;4.384;2022-12-29T11:19:00;12.70;99.90
22635;DHT22;11484;50.858;4.384;2022-12-29T11:21:30;12.80;99.90
22635;DHT22;11484;50.858;4.384;2022-12-29T11:24:01;12.80;99.90
22635;DHT22;11484;50.858;4.384;2022-12-29T11:26:29;12.80;99.90
22635;DHT22;11484;50.858;4.384;2022-12-29T11:31:49;12.90;99.90
22635;DHT22;11484;50.858;4.384;2022-12-29T11:34:27;12.70;99.90
22635;DHT22;11484;50.858;4.384;2022-12-29T11:37:03;12.50;99.90
22635;DHT22;11484;50.858;4.384;2022-12-29T11:39:56;12.30;99.90
22635;DHT22;11484;50.858;4.384;2022-12-29T11:42:36;12.10;99.90
22635;DHT22;11484;50.858;4.384;2022-12-29T11:45:21;12.00;99.90
22635;DHT22;11484;50.858;4.384;2022-12-29T11:47:52;11.90;99.90
22635;DHT22;11484;50.858;4.384;2022-12-29T11:50:25;11.90;99.90
22635;DHT22;11484;50.858;4.384;2022-12-29T11:53:00;11.90;99.90
22635;DHT22;11484;50.858;4.384;2022-12-29T11:55:30;11.80;99.90
22635;DHT22;11484;50.858;4.384;2022-12-29T11:57:58;11.80;99.90
22635;DHT22;11484;50.858;4.384;2022-12-29T12:00:26;11.90;99.90
22635;DHT22;11484;50.858;4.384;2022-12-29T12:03:18;11.80;99.90
22635;DHT22;11484;50.858;4.384;2022-12-29T12:06:18;11.80;99.90
22635;DHT22;11484;50.858;4.384;2022-12-29T12:09:02;11.80;99.90
22635;DHT22;11484;50.858;4.384;2022-12-29T12:11:37;11.70;99.90
22635;DHT22;11484;50.858;4.384;2022-12-29T12:16:41;11.70;99.90
22635;DHT22;11484;50.858;4.384;2022-12-29T12:21:47;11.80;99.90
22635;DHT22;11484;50.858;4.384;2022-12-29T12:24:42;11.70;99.90
22635;DHT22;11484;50.858;4.384;2022-12-29T12:27:31;11.70;99.90
22635;DHT22;11484;50.858;4.384;2022-12-29T12:35:32;11.80;99.90
22635;DHT22;11484;50.858;4.384;2022-12-29T12:41:02;11.90;99.90
22635;DHT22;11484;50.858;4.384;2022-12-29T12:43:38;11.80;99.90
22635;DHT22;11484;50.858;4.384;2022-12-29T12:52:17;12.10;99.90
22635;DHT22;11484;50.858;4.384;2022-12-29T13:12:30;11.80;99.90
22635;DHT22;11484;50.858;4.384;2022-12-29T13:15:18;11.70;99.90
22635;DHT22;11484;50.858;4.384;2022-12-29T13:18:10;11.80;99.90
22635;DHT22;11484;50.858;4.384;2022-12-29T13:26:22;12.00;99.90
22635;DHT22;11484;50.858;4.384;2022-12-29T13:28:55;12.00;99.90
22635;DHT22;11484;50.858;4.384;2022-12-29T13:31:47;12.00;99.90
22635;DHT22;11484;50.858;4.384;2022-12-29T13:34:53;11.90;99.90
22635;DHT22;11484;50.858;4.384;2022-12-29T13:37:25;11.90;99.90
22635;DHT22;11484;50.858;4.384;2022-12-29T13:39:59;11.70;99.90
22635;DHT22;11484;50.858;4.384;2022-12-29T13:42:27;11.70;99.90
22635;DHT22;11484;50.858;4.384;2022-12-29T13:45:05;11.60;99.90
22635;DHT22;11484;50.858;4.384;2022-12-29T13:47:42;11.70;99.90
22635;DHT22;11484;50.858;4.384;2022-12-29T13:50:22;11.70;99.90
22635;DHT22;11484;50.858;4.384;2022-12-29T13:52:51;11.80;99.90
22635;DHT22;11484;50.858;4.384;2022-12-29T14:00:22;11.50;99.90
22635;DHT22;11484;50.858;4.384;2022-12-29T14:03:11;11.40;99.90
22635;DHT22;11484;50.858;4.384;2022-12-29T14:05:45;11.40;99.90
22635;DHT22;11484;50.858;4.384;2022-12-29T14:08:18;11.40;99.90
22635;DHT22;11484;50.858;4.384;2022-12-29T14:10:48;11.30;99.90
22635;DHT22;11484;50.858;4.384;2022-12-29T14:13:20;11.30;99.90
22635;DHT22;11484;50.858;4.384;2022-12-29T14:16:05;11.30;99.90
22635;DHT22;11484;50.858;4.384;2022-12-29T14:18:33;11.40;99.90
22635;DHT22;11484;50.858;4.384;2022-12-29T14:21:09;11.40;99.90
22635;DHT22;11484;50.858;4.384;2022-12-29T14:23:43;11.40;99.90
22635;DHT22;11484;50.858;4.384;2022-12-29T14:26:14;11.50;99.90
22635;DHT22;11484;50.858;4.384;2022-12-29T14:28:46;11.50;99.90
22635;DHT22;11484;50.858;4.384;2022-12-29T14:36:41;11.60;99.90
22635;DHT22;11484;50.858;4.384;2022-12-29T14:42:01;11.60;99.90
22635;DHT22;11484;50.858;4.384;2022-12-29T14:44:29;11.60;99.90
22635;DHT22;11484;50.858;4.384;2022-12-29T14:46:56;11.70;99.90
22635;DHT22;11484;50.858;4.384;2022-12-29T14:49:28;11.50;99.90
22635;DHT22;11484;50.858;4.384;2022-12-29T14:52:12;11.20;99.90
22635;DHT22;11484;50.858;4.384;2022-12-29T14:54:44;11.00;99.90
22635;DHT22;11484;50.858;4.384;2022-12-29T14:57:20;10.80;99.90
22635;DHT22;11484;50.858;4.384;2022-12-29T14:59:48;10.70;99.90
22635;DHT22;11484;50.858;4.384;2022-12-29T15:02:22;10.70;99.90
22635;DHT22;11484;50.858;4.384;2022-12-29T15:04:50;10.50;99.90
22635;DHT22;11484;50.858;4.384;2022-12-29T15:07:18;10.50;99.90
22635;DHT22;11484;50.858;4.384;2022-12-29T15:09:50;10.40;99.90
22635;DHT22;11484;50.858;4.384;2022-12-29T15:12:41;10.30;99.90
22635;DHT22;11484;50.858;4.384;2022-12-29T15:15:26;10.20;99.90
22635;DHT22;11484;50.858;4.384;2022-12-29T15:17:54;10.20;99.90
22635;DHT22;11484;50.858;4.384;2022-12-29T15:20:24;10.20;99.90
22635;DHT22;11484;50.858;4.384;2022-12-29T15:23:10;10.00;99.90
22635;DHT22;11484;50.858;4.384;2022-12-29T15:25:45;10.00;99.90
22635;DHT22;11484;50.858;4.384;2022-12-29T15:28:12;10.00;99.90
22635;DHT22;11484;50.858;4.384;2022-12-29T15:30:57;10.00;99.90
22635;DHT22;11484;50.858;4.384;2022-12-29T15:33:27;9.90;99.90
22635;DHT22;11484;50.858;4.384;2022-12-29T15:35:57;9.80;99.90
22635;DHT22;11484;50.858;4.384;2022-12-29T15:38:29;9.70;99.90
22635;DHT22;11484;50.858;4.384;2022-12-29T15:41:02;9.70;99.90
22635;DHT22;11484;50.858;4.384;2022-12-29T15:46:16;9.50;99.90
22635;DHT22;11484;50.858;4.384;2022-12-29T15:48:43;9.60;99.90
22635;DHT22;11484;50.858;4.384;2022-12-29T15:51:41;9.60;99.90
22635;DHT22;11484;50.858;4.384;2022-12-29T15:54:17;9.70;99.90
22635;DHT22;11484;50.858;4.384;2022-12-29T15:56:44;9.70;99.90
22635;DHT22;11484;50.858;4.384;2022-12-29T15:59:30;9.80;99.90
22635;DHT22;11484;50.858;4.384;2022-12-29T16:01:58;9.80;99.90
22635;DHT22;11484;50.858;4.384;2022-12-29T16:04:29;9.80;99.90
22635;DHT22;11484;50.858;4.384;2022-12-29T16:07:03;9.80;99.90
22635;DHT22;11484;50.858;4.384;2022-12-29T16:09:43;9.70;99.90
22635;DHT22;11484;50.858;4.384;2022-12-29T16:12:21;9.70;99.90
22635;DHT22;11484;50.858;4.384;2022-12-29T16:14:56;9.80;99.90
22635;DHT22;11484;50.858;4.384;2022-12-29T16:17:26;9.70;99.90
22635;DHT22;11484;50.858;4.384;2022-12-29T16:19:56;9.60;99.90
22635;DHT22;11484;50.858;4.384;2022-12-29T16:22:41;9.50;99.90
22635;DHT22;11484;50.858;4.384;2022-12-29T16:28:23;9.60;99.90
22635;DHT22;11484;50.858;4.384;2022-12-29T16:31:21;9.70;99.90
22635;DHT22;11484;50.858;4.384;2022-12-29T16:33:55;9.60;99.90
22635;DHT22;11484;50.858;4.384;2022-12-29T16:36:40;9.60;99.90
22635;DHT22;11484;50.858;4.384;2022-12-29T16:39:21;9.60;99.90
22635;DHT22;11484;50.858;4.384;2022-12-29T16:41:50;9.60;99.90
22635;DHT22;11484;50.858;4.384;2022-12-29T16:44:19;9.60;99.90
22635;DHT22;11484;50.858;4.384;2022-12-29T16:47:04;9.60;99.90
22635;DHT22;11484;50.858;4.384;2022-12-29T16:49:34;9.60;99.90
22635;DHT22;11484;50.858;4.384;2022-12-29T16:52:01;9.60;99.90
22635;DHT22;11484;50.858;4.384;2022-12-29T16:54:37;9.60;99.90
22635;DHT22;11484;50.858;4.384;2022-12-29T16:57:04;9.60;99.90
22635;DHT22;11484;50.858;4.384;2022-12-29T16:59:33;9.60;99.90
22635;DHT22;11484;50.858;4.384;2022-12-29T17:02:05;9.60;99.90
22635;DHT22;11484;50.858;4.384;2022-12-29T17:04:37;9.60;99.90
22635;DHT22;11484;50.858;4.384;2022-12-29T17:07:17;9.50;99.90
22635;DHT22;11484;50.858;4.384;2022-12-29T17:09:43;9.40;99.90
22635;DHT22;11484;50.858;4.384;2022-12-29T17:12:14;9.40;99.90
22635;DHT22;11484;50.858;4.384;2022-12-29T17:19:54;9.40;99.90
22635;DHT22;11484;50.858;4.384;2022-12-29T17:22:26;9.50;99.90
22635;DHT22;11484;50.858;4.384;2022-12-29T17:24:54;9.50;99.90
22635;DHT22;11484;50.858;4.384;2022-12-29T17:27:51;9.50;99.90
22635;DHT22;11484;50.858;4.384;2022-12-29T17:30:23;9.50;99.90
22635;DHT22;11484;50.858;4.384;2022-12-29T17:32:57;9.50;99.90
22635;DHT22;11484;50.858;4.384;2022-12-29T17:35:24;9.40;99.90
22635;DHT22;11484;50.858;4.384;2022-12-29T17:37:51;9.50;99.90
22635;DHT22;11484;50.858;4.384;2022-12-29T17:40:21;9.50;99.90
22635;DHT22;11484;50.858;4.384;2022-12-29T17:42:51;9.50;99.90
22635;DHT22;11484;50.858;4.384;2022-12-29T17:45:27;9.50;99.90
22635;DHT22;11484;50.858;4.384;2022-12-29T17:47:53;9.50;99.90
22635;DHT22;11484;50.858;4.384;2022-12-29T17:50:25;9.50;99.90
22635;DHT22;11484;50.858;4.384;2022-12-29T17:52:53;9.50;99.90
22635;DHT22;11484;50.858;4.384;2022-12-29T17:55:22;9.50;99.90
22635;DHT22;11484;50.858;4.384;2022-12-29T17:57:48;9.40;99.90
22635;DHT22;11484;50.858;4.384;2022-12-29T18:00:27;9.40;99.90
22635;DHT22;11484;50.858;4.384;2022-12-29T18:02:56;9.40;99.90
22635;DHT22;11484;50.858;4.384;2022-12-29T18:05:26;9.40;99.90